Time;durP1;ratioP1;P1;durP2;ratioP2;P2;SDS_P1;SDS_P2;PMS_P1;PMS_P2;Temp;Humidity;BMP_temperature;BMP_pressure;BME280_temperature;BME280_humidity;BME280_pressure;Samples;Min_cycle;Max_cycle;Signal;HPM_P1;HPM_P2
2024/02/02 08:11:46;;;;;;;2.43;0.87;;;5.80;99.90;;;;;;4917122;23;20233;-77
2024/02/02 08:14:13;;;;;;;2.10;0.70;;;6.00;99.90;;;;;;4934241;29;20268;-83
2024/02/02 08:16:40;;;;;;;4.43;1.07;;;6.00;99.90;;;;;;4934487;29;20205;-81
2024/02/02 08:19:07;;;;;;;12.20;1.50;;;5.90;99.90;;;;;;4924826;29;20321;-81
2024/02/02 08:21:34;;;;;;;4.90;1.10;;;6.00;99.90;;;;;;4917042;29;20232;-85
2024/02/02 08:24:02;;;;;;;9.30;1.47;;;6.10;99.90;;;;;;4935842;29;20213;-80
2024/02/02 08:26:29;;;;;;;3.17;1.20;;;6.00;99.90;;;;;;4935822;29;20217;-81
2024/02/02 08:28:57;;;;;;;1.13;0.77;;;6.00;99.90;;;;;;4925058;29;20558;-82
2024/02/02 08:31:24;;;;;;;5.60;1.80;;;6.00;99.90;;;;;;4920968;29;20208;-81
2024/02/02 08:33:51;;;;;;;7.30;1.60;;;6.00;99.90;;;;;;4926198;29;20210;-81
2024/02/02 08:36:18;;;;;;;3.73;1.57;;;6.00;99.90;;;;;;4926020;29;20282;-82
2024/02/02 08:38:46;;;;;;;7.77;1.50;;;6.10;99.90;;;;;;4922180;29;20261;-85
2024/02/02 08:41:14;;;;;;;6.73;1.20;;;6.10;99.90;;;;;;4918354;29;20220;-84
2024/02/02 08:43:45;;;;;;;5.73;1.30;;;6.10;99.90;;;;;;4917412;29;20621;-86
2024/02/02 08:46:20;;;;;;;8.87;1.60;;;6.10;99.90;;;;;;4917853;29;20219;-81
2024/02/02 08:48:49;;;;;;;5.40;1.43;;;6.20;99.90;;;;;;4906258;29;20669;-82
2024/02/02 08:51:46;;;;;;;5.27;1.83;;;6.20;99.90;;;;;;4917047;29;20649;-81
2024/02/02 08:54:33;;;;;;;4.70;1.90;;;6.20;99.90;;;;;;4916366;29;20268;-78
2024/02/02 08:57:29;;;;;;;12.77;2.00;;;6.30;99.90;;;;;;4918443;29;20232;-79
2024/02/02 08:59:56;;;;;;;7.83;1.50;;;6.30;99.90;;;;;;4917324;29;20234;-83
2024/02/02 09:03:13;;;;;;;8.20;1.30;;;6.30;99.90;;;;;;4916674;29;20229;-81
2024/02/02 09:05:51;;;;;;;5.53;1.47;;;6.20;99.90;;;;;;4881349;29;20809;-77
2024/02/02 09:08:38;;;;;;;4.13;1.13;;;6.20;99.90;;;;;;4911409;29;20226;-78
2024/02/02 09:11:23;;;;;;;5.37;2.80;;;6.20;99.90;;;;;;4915383;29;20304;-80
2024/02/02 09:14:06;;;;;;;8.13;1.70;;;6.30;99.90;;;;;;4915083;29;20565;-77
2024/02/02 09:16:43;;;;;;;9.53;1.73;;;6.30;99.90;;;;;;4908176;29;20209;-77
2024/02/02 09:19:26;;;;;;;3.80;1.40;;;6.30;99.90;;;;;;4913633;29;20320;-74
2024/02/02 09:21:56;;;;;;;3.20;1.20;;;6.30;99.90;;;;;;4913495;29;20328;-77
2024/02/02 09:24:32;;;;;;;6.10;1.50;;;6.30;99.90;;;;;;4912846;29;20205;-77
2024/02/02 09:27:00;;;;;;;5.23;1.90;;;6.40;99.90;;;;;;4917584;29;20564;-80
2024/02/02 09:29:27;;;;;;;7.00;1.77;;;6.40;99.90;;;;;;4915044;29;20526;-77
2024/02/02 09:31:54;;;;;;;8.67;1.90;;;6.40;99.90;;;;;;4915769;29;20269;-78
2024/02/02 09:34:25;;;;;;;7.23;2.43;;;6.50;99.90;;;;;;4915143;29;20213;-75
2024/02/02 09:36:53;;;;;;;10.43;2.10;;;6.60;99.90;;;;;;4916226;29;20741;-79
2024/02/02 09:39:52;;;;;;;9.63;2.23;;;6.50;99.90;;;;;;4921616;29;20272;-80
2024/02/02 09:42:45;;;;;;;6.40;1.60;;;6.60;99.90;;;;;;4915973;29;20230;-81
2024/02/02 09:45:20;;;;;;;9.93;2.37;;;6.60;99.90;;;;;;4916534;29;20214;-84
2024/02/02 09:48:06;;;;;;;6.10;1.83;;;6.60;99.90;;;;;;4920858;29;20221;-83
2024/02/02 09:50:55;;;;;;;6.17;2.07;;;6.60;99.90;;;;;;4922087;29;20209;-82
2024/02/02 09:53:54;;;;;;;9.40;2.83;;;6.70;99.90;;;;;;4917849;29;20214;-84
2024/02/02 09:56:29;;;;;;;5.13;1.73;;;6.70;99.90;;;;;;4893578;29;20281;-81
2024/02/02 09:59:04;;;;;;;13.40;2.17;;;6.50;99.90;;;;;;4916505;29;20809;-82
2024/02/02 10:01:57;;;;;;;8.00;2.03;;;6.60;99.90;;;;;;4916611;29;20217;-82
2024/02/02 10:04:42;;;;;;;11.30;2.60;;;6.70;99.90;;;;;;4916447;29;20732;-82
2024/02/02 10:07:28;;;;;;;11.83;1.80;;;6.80;99.90;;;;;;4915180;29;20254;-79
2024/02/02 10:10:16;;;;;;;7.37;2.10;;;6.80;99.90;;;;;;4916363;29;20218;-84
2024/02/02 10:12:53;;;;;;;18.03;2.83;;;6.80;99.90;;;;;;4919212;29;20278;-84
2024/02/02 10:15:42;;;;;;;6.23;2.13;;;6.80;99.90;;;;;;4918104;29;20664;-85
2024/02/02 10:18:53;;;;;;;5.57;2.60;;;6.90;99.90;;;;;;4914749;29;20226;-83
2024/02/02 10:21:33;;;;;;;8.37;2.63;;;6.90;99.90;;;;;;4916477;29;20317;-84
2024/02/02 10:24:19;;;;;;;10.67;2.60;;;6.90;99.90;;;;;;4920021;29;20229;-83
2024/02/02 10:26:58;;;;;;;12.50;2.57;;;6.90;99.90;;;;;;4917528;29;20201;-83
2024/02/02 10:29:51;;;;;;;9.83;2.60;;;7.00;99.90;;;;;;4914850;29;20214;-83
2024/02/02 10:32:47;;;;;;;10.67;2.33;;;7.00;99.90;;;;;;4920187;29;20209;-80
2024/02/02 10:35:26;;;;;;;13.30;3.00;;;7.00;99.90;;;;;;4918382;29;20201;-82
2024/02/02 10:37:53;;;;;;;11.33;3.00;;;7.10;99.90;;;;;;4917837;29;20288;-84
2024/02/02 10:40:40;;;;;;;10.10;2.40;;;7.10;99.90;;;;;;4922497;29;20636;-82
2024/02/02 10:43:20;;;;;;;10.13;3.77;;;7.20;99.90;;;;;;4920990;29;20704;-84
2024/02/02 10:45:57;;;;;;;12.57;3.13;;;7.10;99.90;;;;;;4918593;29;20201;-84
2024/02/02 10:48:46;;;;;;;8.43;2.93;;;7.20;99.90;;;;;;4918820;29;20233;-84
2024/02/02 10:51:21;;;;;;;10.60;2.60;;;7.30;99.90;;;;;;4918418;29;20264;-85
2024/02/02 10:54:01;;;;;;;6.33;2.80;;;7.40;99.90;;;;;;4917772;29;20284;-81
2024/02/02 10:56:38;;;;;;;9.27;2.70;;;7.50;99.90;;;;;;4919609;29;20205;-85
2024/02/02 10:59:19;;;;;;;7.43;2.60;;;7.60;99.90;;;;;;4920717;29;20233;-81
2024/02/02 11:01:58;;;;;;;8.97;2.00;;;7.60;99.90;;;;;;4920877;29;20209;-82
2024/02/02 11:04:35;;;;;;;8.30;2.80;;;7.60;99.90;;;;;;4924800;29;20216;-81
2024/02/02 11:07:11;;;;;;;10.13;3.63;;;7.60;99.90;;;;;;4921583;29;20212;-84
2024/02/02 11:09:51;;;;;;;10.47;3.23;;;7.60;99.90;;;;;;4924407;29;20240;-84
2024/02/02 11:12:27;;;;;;;5.83;2.70;;;7.60;99.90;;;;;;4919158;29;20358;-85
2024/02/02 11:15:07;;;;;;;7.47;2.67;;;7.70;99.90;;;;;;4919354;29;20214;-81
2024/02/02 11:17:39;;;;;;;11.30;3.33;;;7.60;99.90;;;;;;4926705;29;20231;-82
2024/02/02 11:20:23;;;;;;;5.73;2.27;;;7.60;99.90;;;;;;4928964;29;20657;-81
2024/02/02 11:22:59;;;;;;;7.73;2.87;;;7.70;99.90;;;;;;4925685;29;20269;-84
2024/02/02 11:25:37;;;;;;;7.57;3.03;;;7.70;99.90;;;;;;4940227;28;20258;-84
2024/02/02 11:28:14;;;;;;;10.13;3.00;;;7.80;99.90;;;;;;4942068;28;20225;-84
2024/02/02 11:31:03;;;;;;;8.37;3.00;;;7.90;99.90;;;;;;4928993;28;20209;-84
2024/02/02 11:33:47;;;;;;;6.80;3.03;;;7.90;99.90;;;;;;4922460;29;20209;-85
2024/02/02 11:36:25;;;;;;;10.13;3.13;;;8.00;99.90;;;;;;4922719;29;20214;-83
2024/02/02 11:39:05;;;;;;;8.27;3.60;;;8.00;99.90;;;;;;4917484;29;20281;-85
2024/02/02 11:41:36;;;;;;;8.83;3.03;;;8.10;99.90;;;;;;4921246;29;20269;-85
2024/02/02 11:44:06;;;;;;;5.93;2.83;;;8.10;99.90;;;;;;4919284;29;20237;-85
2024/02/02 11:46:33;;;;;;;11.23;3.20;;;8.10;99.90;;;;;;4919398;29;20210;-83
2024/02/02 11:49:07;;;;;;;9.30;2.73;;;8.10;99.90;;;;;;4919429;29;20225;-84
2024/02/02 11:51:36;;;;;;;11.00;3.53;;;8.10;99.90;;;;;;4919940;29;20209;-81
2024/02/02 11:54:19;;;;;;;13.23;3.00;;;8.20;99.90;;;;;;4920629;29;20213;-85
2024/02/02 11:56:50;;;;;;;9.63;3.00;;;8.20;99.90;;;;;;4921155;29;20202;-84
2024/02/02 11:59:24;;;;;;;6.53;2.80;;;8.20;99.90;;;;;;4929431;28;20206;-81
2024/02/02 12:02:02;;;;;;;9.10;2.90;;;8.30;99.90;;;;;;4934689;28;20214;-83
2024/02/02 12:04:41;;;;;;;11.90;3.13;;;8.30;99.90;;;;;;4934220;29;20206;-83
2024/02/02 12:07:23;;;;;;;11.30;3.27;;;8.30;99.90;;;;;;4930876;28;20213;-83
2024/02/02 12:09:57;;;;;;;13.47;3.37;;;8.20;99.90;;;;;;4929730;29;20212;-85
2024/02/02 12:12:29;;;;;;;10.77;3.03;;;8.20;99.90;;;;;;4931009;29;20205;-82
2024/02/02 12:14:58;;;;;;;10.10;2.80;;;8.20;99.90;;;;;;4922156;29;20246;-80
2024/02/02 12:17:25;;;;;;;10.00;3.57;;;8.20;99.90;;;;;;4913885;29;20353;-78
2024/02/02 12:19:53;;;;;;;7.03;3.13;;;8.20;99.90;;;;;;4916334;29;20222;-78
2024/02/02 12:22:21;;;;;;;8.73;2.17;;;8.20;99.90;;;;;;4916688;29;20626;-78
2024/02/02 12:24:49;;;;;;;9.57;3.30;;;8.30;99.90;;;;;;4919139;29;20245;-79
2024/02/02 12:27:16;;;;;;;11.90;4.37;;;8.20;99.90;;;;;;4927152;29;20197;-80
2024/02/02 12:29:43;;;;;;;7.90;3.07;;;8.30;99.90;;;;;;4924573;29;20217;-79
2024/02/02 12:32:13;;;;;;;6.10;3.00;;;8.40;99.90;;;;;;4916486;29;20233;-80
2024/02/02 12:34:40;;;;;;;11.00;3.27;;;8.50;99.90;;;;;;4916071;29;20241;-82
2024/02/02 12:37:07;;;;;;;11.67;4.17;;;8.50;99.90;;;;;;4917834;29;20213;-79
2024/02/02 12:39:36;;;;;;;11.77;3.50;;;8.60;99.90;;;;;;4917969;29;20213;-79
2024/02/02 12:42:04;;;;;;;7.33;3.30;;;8.70;99.90;;;;;;4917486;29;20209;-81
2024/02/02 12:44:31;;;;;;;12.90;4.07;;;8.70;99.90;;;;;;4917688;29;20270;-83
2024/02/02 12:46:59;;;;;;;7.70;3.40;;;8.70;99.90;;;;;;4918295;29;20680;-81
2024/02/02 12:49:28;;;;;;;9.30;3.40;;;8.50;99.90;;;;;;4917193;29;20210;-81
2024/02/02 12:51:56;;;;;;;8.87;3.50;;;8.50;99.90;;;;;;4917496;29;20218;-80
2024/02/02 12:54:23;;;;;;;11.30;3.97;;;8.50;99.90;;;;;;4917197;29;20217;-81
2024/02/02 12:56:51;;;;;;;5.77;3.00;;;8.50;99.90;;;;;;4917473;29;20294;-80
2024/02/02 12:59:18;;;;;;;7.60;3.20;;;8.50;99.90;;;;;;4917597;29;20265;-78
2024/02/02 13:01:47;;;;;;;6.53;3.10;;;8.60;99.90;;;;;;4916969;29;20682;-79
2024/02/02 13:04:16;;;;;;;7.67;3.10;;;8.70;99.90;;;;;;4917469;29;20646;-81
2024/02/02 13:06:45;;;;;;;8.73;3.30;;;8.80;99.90;;;;;;4917786;29;20560;-77
2024/02/02 13:09:26;;;;;;;11.77;3.33;;;8.80;99.90;;;;;;4917405;29;20234;-81
2024/02/02 13:11:54;;;;;;;13.63;3.53;;;8.80;99.90;;;;;;4917691;29;20626;-81
2024/02/02 13:14:29;;;;;;;8.70;3.37;;;8.70;99.90;;;;;;4916652;29;20217;-80
2024/02/02 13:17:11;;;;;;;15.73;3.20;;;8.70;99.90;;;;;;4917345;29;20272;-78
2024/02/02 13:19:41;;;;;;;9.23;3.13;;;8.70;99.90;;;;;;4917437;29;20213;-81
2024/02/02 13:22:19;;;;;;;7.90;3.73;;;8.80;99.90;;;;;;4917452;29;20209;-80
2024/02/02 13:24:48;;;;;;;8.27;3.77;;;8.90;99.90;;;;;;4917243;29;20294;-81
2024/02/02 13:27:19;;;;;;;6.93;3.20;;;8.90;99.90;;;;;;4918038;29;20270;-81
2024/02/02 13:29:51;;;;;;;7.73;3.20;;;8.90;99.90;;;;;;4917150;29;20221;-81
2024/02/02 13:32:20;;;;;;;13.23;3.43;;;8.90;99.90;;;;;;4917054;29;20569;-81
2024/02/02 13:34:47;;;;;;;11.13;3.20;;;8.90;99.90;;;;;;4917860;29;20539;-80
2024/02/02 13:37:29;;;;;;;15.30;3.17;;;8.90;99.90;;;;;;4916844;29;20264;-77
2024/02/02 13:39:57;;;;;;;9.20;2.90;;;8.90;99.90;;;;;;4917636;29;20216;-80
2024/02/02 13:42:25;;;;;;;7.27;3.00;;;8.70;99.90;;;;;;4917339;29;20214;-79
2024/02/02 13:44:52;;;;;;;6.23;2.77;;;8.70;99.90;;;;;;4918770;29;20276;-80
2024/02/02 13:47:21;;;;;;;9.73;3.37;;;8.60;99.90;;;;;;4917507;29;20536;-82
2024/02/02 13:49:52;;;;;;;8.83;2.93;;;8.60;99.90;;;;;;4917386;29;20257;-80
2024/02/02 13:52:21;;;;;;;6.23;3.00;;;8.60;99.90;;;;;;4916948;29;20297;-78
2024/02/02 13:54:47;;;;;;;9.07;3.37;;;8.50;99.90;;;;;;4916914;29;20213;-78
2024/02/02 13:57:16;;;;;;;8.53;3.93;;;8.60;99.90;;;;;;4916665;29;20237;-81
2024/02/02 13:59:43;;;;;;;10.53;4.30;;;8.60;99.90;;;;;;4917011;29;20239;-77
2024/02/02 14:02:10;;;;;;;8.67;4.17;;;8.60;99.90;;;;;;4916872;29;20209;-77
2024/02/02 14:04:38;;;;;;;12.10;3.60;;;8.60;99.90;;;;;;4917985;29;20300;-80
2024/02/02 14:07:14;;;;;;;7.37;2.50;;;8.70;99.90;;;;;;4920902;29;20249;-80
2024/02/02 14:09:42;;;;;;;10.67;3.53;;;8.60;99.90;;;;;;4920223;29;20205;-80
2024/02/02 14:12:10;;;;;;;8.50;3.40;;;8.70;99.90;;;;;;4920167;29;20221;-78
2024/02/02 14:14:37;;;;;;;4.50;2.83;;;8.80;99.90;;;;;;4920737;29;20233;-78
2024/02/02 14:17:05;;;;;;;8.07;2.43;;;8.80;99.90;;;;;;4920407;29;20236;-79
2024/02/02 14:19:33;;;;;;;7.73;3.53;;;8.70;99.90;;;;;;4920034;29;20221;-80
2024/02/02 14:22:07;;;;;;;11.87;3.03;;;8.70;99.90;;;;;;4919958;29;20269;-80
2024/02/02 14:24:45;;;;;;;7.10;2.70;;;8.70;99.90;;;;;;4920070;29;20233;-81
2024/02/02 14:27:14;;;;;;;7.33;3.30;;;8.70;99.90;;;;;;4919285;29;20217;-80
2024/02/02 14:29:42;;;;;;;9.53;3.20;;;8.80;99.90;;;;;;4919640;29;20293;-80
2024/02/02 14:32:10;;;;;;;9.17;3.57;;;8.80;99.90;;;;;;4920120;29;20210;-81
2024/02/02 14:34:37;;;;;;;7.43;2.87;;;8.80;99.90;;;;;;4919805;29;20269;-80
2024/02/02 14:37:05;;;;;;;10.07;3.10;;;8.90;99.90;;;;;;4919925;29;20218;-80
2024/02/02 14:39:32;;;;;;;13.57;3.13;;;8.90;99.90;;;;;;4919436;29;20206;-80
2024/02/02 14:42:00;;;;;;;6.77;2.60;;;8.90;99.90;;;;;;4919787;29;20556;-79
2024/02/02 14:44:29;;;;;;;10.27;3.07;;;8.80;99.90;;;;;;4919236;29;20264;-79
2024/02/02 14:46:56;;;;;;;8.17;3.17;;;8.80;99.90;;;;;;4919352;29;20206;-77
2024/02/02 14:49:25;;;;;;;8.67;3.00;;;8.80;99.90;;;;;;4918912;29;20317;-80
2024/02/02 14:51:53;;;;;;;11.70;4.20;;;8.90;99.90;;;;;;4919565;29;20270;-79
2024/02/02 14:54:21;;;;;;;7.17;3.27;;;8.80;99.90;;;;;;4919150;29;20249;-81
2024/02/02 14:56:48;;;;;;;7.87;2.97;;;8.70;99.90;;;;;;4919957;29;20744;-80
2024/02/02 14:59:20;;;;;;;7.53;3.13;;;8.70;99.90;;;;;;4919109;29;20240;-79
2024/02/02 15:01:49;;;;;;;8.10;3.43;;;8.80;99.90;;;;;;4919019;29;20554;-84
2024/02/02 15:04:16;;;;;;;6.37;2.87;;;8.80;99.90;;;;;;4919620;29;20582;-81
2024/02/02 15:06:44;;;;;;;6.97;2.57;;;8.80;99.90;;;;;;4919151;29;20237;-79
2024/02/02 15:09:13;;;;;;;5.70;2.70;;;8.70;99.90;;;;;;4918602;29;20732;-82
2024/02/02 15:11:41;;;;;;;4.53;2.33;;;8.80;99.90;;;;;;4918725;29;20232;-82
2024/02/02 15:14:08;;;;;;;6.43;2.23;;;8.70;99.90;;;;;;4919161;29;20285;-80
2024/02/02 15:16:36;;;;;;;8.83;4.27;;;8.70;99.90;;;;;;4920197;29;20248;-81
2024/02/02 15:19:04;;;;;;;8.40;3.70;;;8.70;99.90;;;;;;4922273;29;20652;-80
2024/02/02 15:21:32;;;;;;;10.53;2.83;;;8.70;99.90;;;;;;4927390;29;20218;-78
2024/02/02 15:23:59;;;;;;;6.97;2.60;;;8.70;99.90;;;;;;4936410;29;20237;-79
2024/02/02 15:26:26;;;;;;;6.87;2.77;;;8.60;99.90;;;;;;4936286;29;20201;-77
2024/02/02 15:28:53;;;;;;;9.27;3.17;;;8.70;99.90;;;;;;4922626;29;20772;-82
2024/02/02 15:31:20;;;;;;;5.97;2.50;;;8.70;99.90;;;;;;4919109;29;20214;-79
2024/02/02 15:33:47;;;;;;;7.33;2.67;;;8.70;99.90;;;;;;4918594;29;20210;-76
2024/02/02 15:36:16;;;;;;;8.17;3.27;;;8.70;99.90;;;;;;4918327;29;20665;-76
2024/02/02 15:38:43;;;;;;;7.17;3.43;;;8.70;99.90;;;;;;4918663;29;20260;-76
2024/02/02 15:41:11;;;;;;;6.10;2.60;;;8.80;99.90;;;;;;4918393;29;20210;-76
2024/02/02 15:43:38;;;;;;;6.87;2.23;;;8.80;99.90;;;;;;4917996;29;20288;-78
2024/02/02 15:46:05;;;;;;;6.83;3.30;;;8.80;99.90;;;;;;4918558;29;20285;-79
2024/02/02 15:48:33;;;;;;;7.77;2.73;;;8.80;99.90;;;;;;4918144;29;20226;-78
2024/02/02 15:51:00;;;;;;;5.20;2.60;;;8.80;99.90;;;;;;4918789;29;20245;-78
2024/02/02 15:53:28;;;;;;;6.63;2.63;;;8.80;99.90;;;;;;4919475;29;20210;-76
2024/02/02 15:55:55;;;;;;;5.73;2.50;;;8.80;99.90;;;;;;4919376;29;20261;-76
2024/02/02 15:58:22;;;;;;;5.67;2.60;;;8.80;99.90;;;;;;4919546;29;20574;-79
2024/02/02 16:00:49;;;;;;;6.40;3.07;;;8.80;99.90;;;;;;4919158;29;20236;-79
2024/02/02 16:03:18;;;;;;;7.93;3.03;;;8.80;99.90;;;;;;4919249;29;20665;-78
2024/02/02 16:05:45;;;;;;;6.10;2.83;;;8.90;99.90;;;;;;4918746;29;20621;-77
2024/02/02 16:08:12;;;;;;;6.07;2.47;;;8.90;99.90;;;;;;4918961;29;20233;-78
2024/02/02 16:10:40;;;;;;;5.70;2.60;;;8.80;99.90;;;;;;4918070;29;20220;-81
2024/02/02 16:13:07;;;;;;;7.77;3.00;;;8.90;99.90;;;;;;4918484;29;20221;-77
2024/02/02 16:15:34;;;;;;;7.27;2.87;;;8.90;99.90;;;;;;4920809;29;20209;-82
2024/02/02 16:18:01;;;;;;;7.63;2.87;;;8.90;99.90;;;;;;4920008;29;20637;-77
2024/02/02 16:20:30;;;;;;;6.50;2.60;;;8.90;99.90;;;;;;4918256;29;20680;-82
2024/02/02 16:22:57;;;;;;;5.67;2.73;;;8.90;99.90;;;;;;4918404;29;20210;-81
2024/02/02 16:25:24;;;;;;;8.70;3.17;;;9.00;99.90;;;;;;4917867;29;20731;-81
2024/02/02 16:27:53;;;;;;;6.53;2.73;;;9.00;99.90;;;;;;4917188;29;20261;-77
2024/02/02 16:30:20;;;;;;;6.37;2.30;;;9.00;99.90;;;;;;4918248;29;20206;-81
2024/02/02 16:32:47;;;;;;;9.87;3.30;;;8.90;99.90;;;;;;4918037;29;20296;-81
2024/02/02 16:35:14;;;;;;;5.60;2.83;;;9.00;99.90;;;;;;4917950;29;20214;-81
2024/02/02 16:37:41;;;;;;;8.17;2.43;;;9.00;99.90;;;;;;4917784;29;20233;-82
2024/02/02 16:40:09;;;;;;;9.07;3.70;;;8.90;99.90;;;;;;4917239;29;20213;-78
2024/02/02 16:42:38;;;;;;;6.23;2.77;;;8.90;99.90;;;;;;4919202;29;20213;-76
2024/02/02 16:45:08;;;;;;;5.93;2.47;;;8.90;99.90;;;;;;4919583;29;20728;-76
2024/02/02 16:47:35;;;;;;;6.87;3.20;;;9.00;99.90;;;;;;4923780;29;20230;-79
2024/02/02 16:50:03;;;;;;;5.90;2.20;;;9.00;99.90;;;;;;4917664;29;20257;-80
2024/02/02 16:52:29;;;;;;;7.67;3.83;;;8.90;99.90;;;;;;4917982;29;20221;-78
2024/02/02 16:54:56;;;;;;;7.27;3.03;;;9.00;99.90;;;;;;4918098;29;20229;-82
2024/02/02 16:57:23;;;;;;;8.60;3.83;;;8.90;99.90;;;;;;4914554;29;20222;-81
2024/02/02 16:59:50;;;;;;;7.33;3.07;;;8.90;99.90;;;;;;4920279;29;20217;-83
2024/02/02 17:02:19;;;;;;;6.67;3.10;;;8.90;99.90;;;;;;4931565;29;20261;-84
2024/02/02 17:04:46;;;;;;;5.63;2.60;;;8.90;99.90;;;;;;4918102;29;20241;-80
2024/02/02 17:07:13;;;;;;;8.40;2.90;;;8.90;99.90;;;;;;4916239;29;20217;-82
2024/02/02 17:09:44;;;;;;;6.23;3.20;;;8.90;99.90;;;;;;4916963;29;20581;-80
2024/02/02 17:12:11;;;;;;;8.90;3.07;;;8.90;99.90;;;;;;4931021;29;20660;-82
2024/02/02 17:14:39;;;;;;;12.23;3.73;;;9.00;99.90;;;;;;4928941;29;20258;-81
2024/02/02 17:17:06;;;;;;;6.10;2.93;;;9.00;99.90;;;;;;4918960;29;20209;-81
2024/02/02 17:19:35;;;;;;;8.27;3.40;;;9.00;99.90;;;;;;4919692;29;20217;-79
2024/02/02 17:22:02;;;;;;;6.27;3.00;;;9.00;99.90;;;;;;4917785;29;20229;-79
2024/02/02 17:24:29;;;;;;;9.37;3.23;;;9.00;99.90;;;;;;4919691;29;20625;-79
2024/02/02 17:26:56;;;;;;;8.63;3.57;;;9.00;99.90;;;;;;4922139;29;20665;-79
2024/02/02 17:29:23;;;;;;;8.77;3.27;;;8.90;99.90;;;;;;4916893;29;20632;-79
2024/02/02 17:31:51;;;;;;;8.50;3.63;;;9.00;99.90;;;;;;4917011;29;20213;-79
2024/02/02 17:34:18;;;;;;;9.57;3.93;;;9.10;99.90;;;;;;4916605;29;20209;-79
2024/02/02 17:36:46;;;;;;;7.93;3.90;;;9.00;99.90;;;;;;4916213;29;20206;-80
2024/02/02 17:39:13;;;;;;;6.87;2.73;;;9.00;99.90;;;;;;4917624;29;20229;-79
2024/02/02 17:41:40;;;;;;;5.77;3.30;;;9.00;99.90;;;;;;4919888;29;20748;-78
2024/02/02 17:44:07;;;;;;;7.13;3.20;;;9.00;99.90;;;;;;4920186;29;20273;-78
2024/02/02 17:46:34;;;;;;;8.00;3.63;;;9.00;99.90;;;;;;4920340;29;20214;-77
2024/02/02 17:49:02;;;;;;;8.23;3.73;;;9.00;99.90;;;;;;4920418;29;20225;-77
2024/02/02 17:51:30;;;;;;;7.57;3.83;;;9.00;99.90;;;;;;4919925;29;20253;-77
2024/02/02 17:54:00;;;;;;;9.13;3.97;;;8.90;99.90;;;;;;4924823;29;20216;-76
2024/02/02 17:56:27;;;;;;;9.07;3.80;;;8.90;99.90;;;;;;4930496;29;20213;-76
2024/02/02 17:58:55;;;;;;;12.47;3.83;;;8.90;99.90;;;;;;4915373;29;20267;-76
2024/02/02 18:01:23;;;;;;;10.70;4.10;;;8.90;99.90;;;;;;4916209;29;20289;-75
2024/02/02 18:03:51;;;;;;;8.77;4.00;;;8.90;99.90;;;;;;4910320;29;20248;-74
2024/02/02 18:06:18;;;;;;;9.27;4.40;;;9.00;99.90;;;;;;4919029;29;20313;-77
2024/02/02 18:08:45;;;;;;;9.77;3.43;;;9.00;99.90;;;;;;4918156;29;20237;-75
2024/02/02 18:11:13;;;;;;;9.10;4.33;;;9.10;99.90;;;;;;4918376;29;20576;-79
2024/02/02 18:13:40;;;;;;;8.00;2.90;;;9.10;99.90;;;;;;4915216;29;20294;-76
2024/02/02 18:16:08;;;;;;;8.83;3.80;;;9.10;99.90;;;;;;4910325;29;20226;-77
2024/02/02 18:18:35;;;;;;;11.17;4.47;;;9.10;99.90;;;;;;4914003;29;20245;-75
2024/02/02 18:21:02;;;;;;;9.63;4.10;;;9.10;99.90;;;;;;4914738;29;20218;-75
2024/02/02 18:23:32;;;;;;;8.03;3.87;;;9.20;99.90;;;;;;4919012;29;20300;-77
2024/02/02 18:25:59;;;;;;;9.87;4.30;;;9.20;99.90;;;;;;4919546;29;20304;-76
2024/02/02 18:28:27;;;;;;;11.10;4.50;;;9.20;99.90;;;;;;4919135;29;20236;-81
2024/02/02 18:30:55;;;;;;;8.90;4.37;;;9.20;99.90;;;;;;4918723;29;20289;-78
2024/02/02 18:33:22;;;;;;;8.87;4.27;;;9.20;99.90;;;;;;4921241;29;20277;-79
2024/02/02 18:35:49;;;;;;;8.70;4.37;;;9.30;99.90;;;;;;4926144;29;20524;-78
2024/02/02 18:38:17;;;;;;;7.10;3.90;;;9.30;99.90;;;;;;4924309;29;20305;-81
2024/02/02 18:40:49;;;;;;;8.27;4.70;;;9.40;99.90;;;;;;4925593;29;20617;-76
2024/02/02 18:43:16;;;;;;;10.20;3.67;;;9.40;99.90;;;;;;4917349;29;22114;-72
2024/02/02 18:45:45;;;;;;;8.70;3.90;;;9.30;99.90;;;;;;4910374;29;20240;-76
2024/02/02 18:48:12;;;;;;;11.17;4.87;;;9.30;99.90;;;;;;4910630;29;20285;-79
2024/02/02 18:50:39;;;;;;;7.73;3.60;;;9.40;99.90;;;;;;4917643;29;20217;-78
2024/02/02 18:53:06;;;;;;;10.60;3.73;;;9.40;99.90;;;;;;4918150;29;20213;-79
2024/02/02 18:55:33;;;;;;;8.53;3.57;;;9.40;99.90;;;;;;4920795;29;20610;-79
2024/02/02 18:58:03;;;;;;;8.13;3.67;;;9.40;99.90;;;;;;4920867;29;20257;-80
2024/02/02 19:00:30;;;;;;;9.70;3.87;;;9.40;99.90;;;;;;4921165;29;20257;-80
2024/02/02 19:02:59;;;;;;;6.27;2.73;;;9.40;99.90;;;;;;4919326;29;20231;-80
2024/02/02 19:05:26;;;;;;;7.33;3.83;;;9.30;99.90;;;;;;4918825;29;20292;-78
2024/02/02 19:07:53;;;;;;;7.03;3.53;;;9.30;99.90;;;;;;4918819;29;20701;-80
2024/02/02 19:10:20;;;;;;;6.63;3.10;;;9.40;99.90;;;;;;4918622;29;20699;-81
2024/02/02 19:12:47;;;;;;;6.63;2.90;;;9.40;99.90;;;;;;4918868;29;20221;-81
2024/02/02 19:15:14;;;;;;;5.60;2.90;;;9.40;99.90;;;;;;4919881;29;20210;-79
2024/02/02 19:17:42;;;;;;;4.83;3.20;;;9.50;99.90;;;;;;4920161;29;20230;-79
2024/02/02 19:20:12;;;;;;;6.63;3.47;;;9.50;99.90;;;;;;4919921;29;20212;-77
2024/02/02 19:22:39;;;;;;;9.43;3.53;;;9.50;99.90;;;;;;4922184;29;20205;-75
2024/02/02 19:25:06;;;;;;;4.30;2.50;;;9.60;99.90;;;;;;4932397;29;20237;-77
2024/02/02 19:27:33;;;;;;;4.57;2.83;;;9.50;99.90;;;;;;4933767;29;20226;-78
2024/02/02 19:30:00;;;;;;;5.80;3.27;;;9.50;99.90;;;;;;4922353;29;20209;-79
2024/02/02 19:32:27;;;;;;;5.83;2.67;;;9.60;99.90;;;;;;4918514;29;20209;-78
2024/02/02 19:34:54;;;;;;;4.70;2.80;;;9.60;99.90;;;;;;4918798;29;20286;-79
2024/02/02 19:37:23;;;;;;;5.50;2.90;;;9.70;99.90;;;;;;4917959;29;20285;-81
2024/02/02 19:39:50;;;;;;;4.63;2.77;;;9.70;99.90;;;;;;4915588;29;20208;-80
2024/02/02 19:42:17;;;;;;;6.63;2.30;;;9.80;99.90;;;;;;4917502;29;20206;-77
2024/02/02 19:44:43;;;;;;;4.03;2.23;;;9.80;99.90;;;;;;4917628;29;20752;-79
2024/02/02 19:47:12;;;;;;;3.63;1.93;;;9.80;99.90;;;;;;4903712;29;20690;-80
2024/02/02 19:49:40;;;;;;;3.80;1.90;;;9.80;99.90;;;;;;4900161;29;20294;-81
2024/02/02 19:52:07;;;;;;;3.83;2.00;;;9.80;99.90;;;;;;4911705;29;20213;-77
2024/02/02 19:54:36;;;;;;;3.63;2.37;;;9.70;99.90;;;;;;4914581;29;20229;-76
2024/02/02 19:57:04;;;;;;;3.00;1.73;;;9.80;99.90;;;;;;4916664;29;20297;-75
2024/02/02 19:59:31;;;;;;;3.20;1.87;;;9.80;99.90;;;;;;4915065;29;20205;-77
2024/02/02 20:02:00;;;;;;;3.00;1.77;;;9.80;99.90;;;;;;4916538;29;20221;-77
2024/02/02 20:04:27;;;;;;;3.33;2.27;;;9.90;99.90;;;;;;4917683;29;20218;-76
2024/02/02 20:06:54;;;;;;;3.83;2.20;;;10.00;99.90;;;;;;4917158;29;20309;-76
2024/02/02 20:09:21;;;;;;;2.67;2.00;;;10.00;99.90;;;;;;4917559;29;20346;-76
2024/02/02 20:11:50;;;;;;;4.17;1.70;;;9.90;99.90;;;;;;4917477;29;20225;-78
2024/02/02 20:14:17;;;;;;;2.13;1.40;;;9.80;99.90;;;;;;4918022;29;20725;-78
2024/02/02 20:16:44;;;;;;;3.13;1.90;;;9.90;99.90;;;;;;4917659;29;20217;-76
2024/02/02 20:19:11;;;;;;;3.50;1.97;;;9.90;99.90;;;;;;4917882;29;20321;-77
2024/02/02 20:21:38;;;;;;;3.83;1.90;;;9.90;99.90;;;;;;4917647;29;20638;-77
2024/02/02 20:24:06;;;;;;;2.33;1.60;;;9.80;99.90;;;;;;4917906;29;20216;-77
2024/02/02 20:26:33;;;;;;;3.03;2.20;;;9.80;99.90;;;;;;4917118;29;20276;-76
2024/02/02 20:29:01;;;;;;;3.37;1.90;;;9.90;99.90;;;;;;4917178;29;20229;-77
2024/02/02 20:31:29;;;;;;;2.63;1.87;;;9.90;99.90;;;;;;4917217;29;20294;-76
2024/02/02 20:33:57;;;;;;;2.97;1.80;;;9.80;99.90;;;;;;4917482;29;20732;-76
2024/02/02 20:36:27;;;;;;;6.50;2.10;;;9.80;99.90;;;;;;4917138;29;20216;-77
2024/02/02 20:38:54;;;;;;;3.23;1.80;;;9.90;99.90;;;;;;4917589;29;20233;-78
2024/02/02 20:41:24;;;;;;;3.17;2.20;;;10.00;99.90;;;;;;4915860;29;20558;-78
2024/02/02 20:43:52;;;;;;;2.63;1.90;;;10.00;99.90;;;;;;4916154;29;20300;-77
2024/02/02 20:46:20;;;;;;;4.00;1.87;;;10.10;99.90;;;;;;4915886;29;20237;-78
2024/02/02 20:48:49;;;;;;;2.97;1.83;;;10.20;99.90;;;;;;4916456;29;20725;-78
2024/02/02 20:51:15;;;;;;;3.30;1.87;;;10.10;99.90;;;;;;4916923;29;20213;-77
2024/02/02 20:53:42;;;;;;;2.93;1.80;;;10.10;99.90;;;;;;4916493;29;20214;-78
2024/02/02 20:56:09;;;;;;;2.50;1.80;;;10.10;99.90;;;;;;4916457;29;20213;-75
2024/02/02 20:58:36;;;;;;;2.43;1.90;;;10.20;99.90;;;;;;4916090;29;20258;-78
2024/02/02 21:01:04;;;;;;;2.87;2.00;;;10.10;99.90;;;;;;4916144;29;20740;-78
2024/02/02 21:03:32;;;;;;;2.50;1.90;;;10.10;99.90;;;;;;4916255;29;20213;-78
2024/02/02 21:06:00;;;;;;;4.43;1.80;;;10.10;99.90;;;;;;4916480;29;20300;-76
2024/02/02 21:08:27;;;;;;;3.00;2.60;;;10.10;99.90;;;;;;4916773;29;20281;-78
2024/02/02 21:10:54;;;;;;;2.10;1.70;;;10.20;99.90;;;;;;4916456;29;20213;-78
2024/02/02 21:13:22;;;;;;;2.67;1.80;;;10.20;99.90;;;;;;4915792;29;20344;-77
2024/02/02 21:15:49;;;;;;;3.47;1.60;;;10.10;99.90;;;;;;4915440;29;20597;-78
2024/02/02 21:18:16;;;;;;;1.90;1.30;;;10.10;99.90;;;;;;4916652;29;20237;-77
2024/02/02 21:20:49;;;;;;;3.17;1.77;;;10.00;99.90;;;;;;4916078;29;20205;-77
2024/02/02 21:23:17;;;;;;;3.17;1.60;;;10.00;99.90;;;;;;4916417;29;20213;-77
2024/02/02 21:25:45;;;;;;;3.50;1.50;;;10.10;99.90;;;;;;4916713;29;20241;-77